Lake Mills, Wisconsin
Current Conditions -  °F | °C
As of 7:55 AM on Saturday 25 Oct 2014 (Local Time) from KRYV Reporting Station
Haze Haze  
Wind Chill: 51°   Ceiling: Unl
Heat Index: 51°   Visibility: 5mi
Dew Point: 51°   Wind: 6mph
Humidity: 99%   Direction: 280°W
Pressure: 29.9"   Gusts: NA
Location:  43.08°N, 88.91°W
Report Text: KRYV 251255Z AUTO 28005KT 5SM BR CLR 11/11 A2990 RMK AO2 T01080107
Loading
Personal Weather Stations






























Interactive Weather Map
Tropical Storm Tracking
New forecast layout! Learn more

10-Day Weather Forecast

Advertisements
Track Severe Weather on mobile